createdAt,value
2018-03-01T00:00:52.486Z,26.43
2018-03-01T00:03:20.525Z,27.07
2018-03-01T00:05:48.745Z,25.13
2018-03-01T00:08:16.705Z,25.20
2018-03-01T00:10:44.526Z,25.23
2018-03-01T00:13:12.705Z,25.53
2018-03-01T00:15:40.447Z,25.60
2018-03-01T00:18:08.565Z,25.07
2018-03-01T00:20:36.806Z,25.90
2018-03-01T00:23:05.465Z,27.57
2018-03-01T00:25:33.805Z,28.13
2018-03-01T00:28:01.626Z,27.60
2018-03-01T00:30:29.485Z,28.07
2018-03-01T00:32:58.188Z,28.63
2018-03-01T00:35:26.745Z,27.47
2018-03-01T00:37:54.525Z,28.50
2018-03-01T00:40:22.346Z,28.33
2018-03-01T00:42:50.105Z,28.03
2018-03-01T00:45:17.965Z,26.33
2018-03-01T00:47:45.845Z,26.80
2018-03-01T00:50:13.686Z,27.43
2018-03-01T00:52:43.045Z,27.60
2018-03-01T00:55:11.686Z,27.00
2018-03-01T00:57:39.466Z,26.53
2018-03-01T01:00:07.966Z,26.73
2018-03-01T01:02:35.866Z,26.23
2018-03-01T01:05:03.648Z,25.93
2018-03-01T01:07:32.124Z,26.10
2018-03-01T01:10:00.985Z,27.50
2018-03-01T01:12:30.045Z,26.63
2018-03-01T01:14:57.884Z,28.33
2018-03-01T01:17:25.705Z,29.33
2018-03-01T01:19:54.225Z,26.67
2018-03-01T01:22:22.205Z,27.80
2018-03-01T01:24:49.988Z,26.60
2018-03-01T01:27:17.926Z,27.37
2018-03-01T01:29:45.866Z,26.63
2018-03-01T01:32:14.404Z,26.60
2018-03-01T01:34:43.024Z,26.77
2018-03-01T01:37:10.886Z,27.03
2018-03-01T01:39:39.125Z,25.03
2018-03-01T01:42:06.965Z,26.83
2018-03-01T01:44:35.166Z,26.80
2018-03-01T01:47:03.265Z,27.53
2018-03-01T01:49:32.766Z,26.67
2018-03-01T01:52:00.804Z,27.33
2018-03-01T01:54:29.025Z,28.13
2018-03-01T01:56:56.945Z,28.13
2018-03-01T01:59:25.045Z,26.73
2018-03-01T02:01:53.710Z,28.87
2018-03-01T02:04:21.940Z,28.60
2018-03-01T02:06:50.092Z,28.20
2018-03-01T02:11:50.732Z,27.33
2018-03-01T02:14:18.632Z,27.10
2018-03-01T02:16:46.441Z,28.40
2018-03-01T02:19:14.394Z,30.10
2018-03-01T02:21:42.280Z,26.87
2018-03-01T02:24:10.590Z,26.17
2018-03-01T02:26:40.710Z,26.10
2018-03-01T02:29:08.750Z,24.70
2018-03-01T02:31:37.151Z,27.20
2018-03-01T02:34:05.170Z,27.37
2018-03-01T02:36:33.951Z,30.37
2018-03-01T02:39:02.709Z,28.50
2018-03-01T02:41:31.173Z,28.93
2018-03-01T02:43:59.331Z,28.20
2018-03-01T02:46:27.971Z,28.17
2018-03-01T02:48:57.890Z,28.10
2018-03-01T02:51:25.750Z,25.03
2018-03-01T02:53:53.690Z,28.33
2018-03-01T02:56:21.570Z,28.37
2018-03-01T02:58:49.353Z,25.73
2018-03-01T03:01:18.692Z,26.57
2018-03-01T03:03:46.570Z,28.53
2018-03-01T03:06:14.894Z,24.90
2018-03-01T03:11:14.869Z,27.10
2018-03-01T03:13:43.010Z,26.63
2018-03-01T03:16:11.652Z,25.30
2018-03-01T03:18:39.811Z,26.23
2018-03-01T03:21:08.013Z,27.80
2018-03-01T03:23:35.850Z,28.33
2018-03-01T03:26:04.770Z,26.13
2018-03-01T03:28:32.930Z,26.67
2018-03-01T03:31:01.471Z,27.00
2018-03-01T03:33:30.111Z,27.77
2018-03-01T03:35:58.133Z,28.07
2018-03-01T03:38:26.151Z,25.67
2018-03-01T03:40:54.250Z,26.77
2018-03-01T03:43:22.210Z,28.50
2018-03-01T03:45:50.090Z,28.00
2018-03-01T03:48:18.270Z,29.37
2018-03-01T03:50:46.050Z,27.37
2018-03-01T03:53:13.950Z,27.13
2018-03-01T03:55:42.052Z,27.57
2018-03-01T03:58:09.970Z,26.60
2018-03-01T04:00:38.691Z,26.00
2018-03-01T04:03:06.531Z,25.83
2018-03-01T04:05:34.771Z,29.13
2018-03-01T04:08:03.312Z,27.63
2018-03-01T04:10:33.510Z,29.30
2018-03-01T04:13:03.428Z,28.13
2018-03-01T04:15:31.368Z,26.43
2018-03-01T04:17:59.168Z,27.37
2018-03-01T04:20:27.129Z,27.97
2018-03-01T04:22:55.167Z,34.80
2018-03-01T04:25:23.048Z,37.07
2018-03-01T04:27:50.888Z,33.20
2018-03-01T04:30:18.767Z,33.53
2018-03-01T04:32:46.648Z,27.60
2018-03-01T04:35:14.687Z,28.03
2018-03-01T04:37:43.307Z,27.20
2018-03-01T04:40:12.128Z,28.00
2018-03-01T04:42:39.970Z,28.10
2018-03-01T04:45:08.129Z,27.30
2018-03-01T04:47:36.308Z,27.67
2018-03-01T04:50:05.067Z,26.77
2018-03-01T04:52:32.868Z,27.77
2018-03-01T04:55:00.849Z,27.53
2018-03-01T04:57:28.673Z,27.53
2018-03-01T04:59:58.067Z,27.97
2018-03-01T05:02:25.926Z,31.40
2018-03-01T05:04:53.806Z,27.27
2018-03-01T05:07:21.506Z,28.23
2018-03-01T05:09:49.448Z,28.73
2018-03-01T05:12:17.285Z,27.57
2018-03-01T05:14:45.306Z,29.53
2018-03-01T05:17:13.152Z,26.93
2018-03-01T05:19:41.086Z,26.83
2018-03-01T05:22:10.205Z,27.63
2018-03-01T05:24:38.046Z,27.70
2018-03-01T05:27:05.987Z,27.00
2018-03-01T05:29:33.867Z,26.50
2018-03-01T05:32:01.805Z,27.63
2018-03-01T05:34:30.685Z,25.90
2018-03-01T05:36:58.806Z,28.40
2018-03-01T05:39:27.208Z,27.30
2018-03-01T05:41:55.066Z,28.13
2018-03-01T05:44:22.925Z,29.47
2018-03-01T05:46:50.726Z,29.27
2018-03-01T05:49:19.125Z,31.53
2018-03-01T05:51:47.667Z,28.00
2018-03-01T05:54:15.546Z,30.27
2018-03-01T05:56:44.226Z,28.70
2018-03-01T05:59:12.128Z,29.60
2018-03-01T06:01:40.752Z,29.57
2018-03-01T06:04:08.789Z,28.53
2018-03-01T06:06:36.668Z,27.03
2018-03-01T06:09:04.722Z,28.67
2018-03-01T06:11:32.608Z,29.27
2018-03-01T06:14:01.373Z,27.43
2018-03-01T06:16:30.088Z,30.50
2018-03-01T06:18:58.794Z,31.57
2018-03-01T06:21:27.669Z,29.23
2018-03-01T06:23:57.009Z,30.10
2018-03-01T06:26:25.569Z,30.43
2018-03-01T06:28:54.768Z,28.83
2018-03-01T06:31:23.446Z,30.30
2018-03-01T06:33:52.086Z,31.60
2018-03-01T06:36:19.906Z,30.33
2018-03-01T06:38:47.686Z,29.93
2018-03-01T06:41:16.127Z,30.27
2018-03-01T06:43:44.808Z,29.00
2018-03-01T06:46:12.627Z,31.50
2018-03-01T06:48:40.672Z,31.67
2018-03-01T06:51:08.528Z,30.73
2018-03-01T06:53:39.688Z,30.43
2018-03-01T06:56:07.895Z,32.93
2018-03-01T07:01:11.028Z,32.97
2018-03-01T07:03:38.788Z,33.43
2018-03-01T07:06:06.630Z,34.60
2018-03-01T07:08:34.650Z,32.73
2018-03-01T07:11:02.648Z,33.00
2018-03-01T07:13:30.509Z,31.97
2018-03-01T07:15:58.408Z,33.57
2018-03-01T07:18:26.369Z,30.43
2018-03-01T07:20:54.108Z,26.40
2018-03-01T07:23:22.208Z,26.60
2018-03-01T07:25:50.048Z,28.07
2018-03-01T07:28:19.068Z,29.43
2018-03-01T07:30:46.928Z,28.77
2018-03-01T07:33:14.951Z,31.63
2018-03-01T07:35:43.596Z,30.57
2018-03-01T07:38:11.408Z,31.90
2018-03-01T07:40:39.310Z,32.40
2018-03-01T07:43:07.208Z,31.80
2018-03-01T07:45:35.030Z,32.90
2018-03-01T07:48:03.048Z,31.57
2018-03-01T07:50:30.927Z,31.60
2018-03-01T07:53:10.276Z,29.77
2018-03-01T07:55:38.107Z,27.80
2018-03-01T07:58:06.248Z,28.60
2018-03-01T08:00:34.187Z,28.10
2018-03-01T08:03:02.047Z,28.10
2018-03-01T08:05:29.868Z,29.43
2018-03-01T08:07:58.673Z,29.80
2018-03-01T08:10:26.526Z,17.50
2018-03-01T08:12:54.369Z,27.17
2018-03-01T08:15:22.206Z,27.53
2018-03-01T08:17:50.127Z,27.77
2018-03-01T08:20:18.528Z,29.43
2018-03-01T08:22:46.468Z,27.00
2018-03-01T08:25:14.488Z,27.70
2018-03-01T08:27:42.688Z,27.43
2018-03-01T08:30:10.846Z,27.57
2018-03-01T08:32:38.968Z,29.03
2018-03-01T08:35:07.268Z,22.50
2018-03-01T08:37:35.327Z,27.37
2018-03-01T08:40:03.127Z,29.93
2018-03-01T08:42:31.887Z,22.70
2018-03-01T08:45:00.726Z,28.70
2018-03-01T08:47:28.727Z,29.67
2018-03-01T08:49:57.322Z,28.27
2018-03-01T08:52:25.086Z,33.20
2018-03-01T08:54:52.808Z,25.17
2018-03-01T08:57:20.565Z,31.60
2018-03-01T08:59:48.406Z,29.80
2018-03-01T09:02:16.346Z,29.07
2018-03-01T09:04:44.206Z,32.83
2018-03-01T09:07:12.308Z,33.50
2018-03-01T09:09:40.446Z,28.43
2018-03-01T09:12:08.546Z,32.63
2018-03-01T09:14:36.486Z,32.67
2018-03-01T09:17:05.206Z,34.50
2018-03-01T09:19:33.246Z,32.77
2018-03-01T09:22:01.736Z,31.80
2018-03-01T09:24:31.010Z,33.57
2018-03-01T09:26:58.814Z,34.23
2018-03-01T09:29:26.587Z,33.03
2018-03-01T09:31:54.445Z,32.13
2018-03-01T09:34:22.426Z,32.70
2018-03-01T09:36:50.206Z,32.27
2018-03-01T09:39:18.305Z,31.43
2018-03-01T09:41:46.067Z,32.60
2018-03-01T09:44:13.826Z,31.07
2018-03-01T09:46:41.886Z,31.17
2018-03-01T09:49:09.666Z,32.40
2018-03-01T09:51:37.365Z,33.23
2018-03-01T09:54:05.286Z,31.73
2018-03-01T09:56:33.066Z,33.27
2018-03-01T09:59:00.906Z,32.00
2018-03-01T10:01:28.914Z,32.83
2018-03-01T10:03:56.730Z,34.63
2018-03-01T10:06:24.892Z,32.30
2018-03-01T10:08:52.971Z,32.90
2018-03-01T10:11:20.812Z,32.47
2018-03-01T10:13:48.632Z,39.57
2018-03-01T10:16:16.591Z,39.70
2018-03-01T10:21:16.832Z,38.57
2018-03-01T10:23:44.932Z,38.73
2018-03-01T10:26:12.813Z,39.30
2018-03-01T10:28:40.652Z,40.97
2018-03-01T10:31:08.452Z,40.97
2018-03-01T10:33:42.051Z,41.77
2018-03-01T10:36:09.950Z,40.07
2018-03-01T10:38:37.990Z,40.27
2018-03-01T10:41:06.130Z,40.33
2018-03-01T10:43:33.931Z,40.40
2018-03-01T10:46:01.790Z,40.53
2018-03-01T10:48:29.590Z,40.83
2018-03-01T10:50:57.337Z,40.67
2018-03-01T10:53:25.178Z,42.20
2018-03-01T10:55:55.716Z,40.37
2018-03-01T10:58:23.516Z,40.70
2018-03-01T11:00:57.258Z,40.60
2018-03-01T11:03:25.357Z,40.13
2018-03-01T11:05:53.456Z,39.17
2018-03-01T11:08:21.756Z,44.77
2018-03-01T11:10:49.776Z,42.37
2018-03-01T11:13:17.835Z,41.37
2018-03-01T11:15:47.178Z,43.87
2018-03-01T11:18:15.131Z,43.33
2018-03-01T11:20:43.051Z,41.50
2018-03-01T11:23:11.112Z,41.67
2018-03-01T11:25:39.852Z,41.10
2018-03-01T11:28:07.593Z,41.43
2018-03-01T11:30:35.501Z,40.63
2018-03-01T11:33:03.350Z,40.57
2018-03-01T11:38:03.150Z,39.90
2018-03-01T11:40:31.051Z,39.67
2018-03-01T11:42:59.731Z,38.87
2018-03-01T11:45:27.651Z,40.57
2018-03-01T11:47:56.511Z,38.73
2018-03-01T11:50:25.191Z,39.23
2018-03-01T11:52:53.294Z,42.43
2018-03-01T11:55:21.190Z,39.80
2018-03-01T11:57:49.310Z,38.47
2018-03-01T12:00:17.211Z,39.47
2018-03-01T12:02:45.031Z,42.03
2018-03-01T12:05:12.830Z,38.33
2018-03-01T12:07:40.748Z,37.97
2018-03-01T12:10:09.568Z,36.67
2018-03-01T12:12:37.428Z,38.97
2018-03-01T12:15:05.467Z,39.53
2018-03-01T12:17:33.338Z,39.63
2018-03-01T12:20:01.449Z,38.67
2018-03-01T12:22:30.147Z,37.37
2018-03-01T12:24:58.948Z,35.17
2018-03-01T12:27:27.087Z,36.77
2018-03-01T12:29:55.168Z,36.93
2018-03-01T12:32:23.047Z,35.27
2018-03-01T12:34:51.708Z,37.33
2018-03-01T12:37:19.507Z,37.20
2018-03-01T12:39:47.587Z,34.77
2018-03-01T12:42:15.507Z,39.50
2018-03-01T12:44:44.347Z,34.37
2018-03-01T12:47:12.287Z,36.47
2018-03-01T12:49:40.127Z,35.87
2018-03-01T12:52:08.032Z,35.57
2018-03-01T12:54:35.929Z,32.90
2018-03-01T12:57:03.748Z,35.07
2018-03-01T12:59:31.728Z,36.60
2018-03-01T13:01:59.672Z,33.37
2018-03-01T13:04:30.005Z,35.27
2018-03-01T13:06:58.105Z,35.93
2018-03-01T13:09:27.005Z,34.50
2018-03-01T13:11:54.765Z,37.00
2018-03-01T13:14:22.786Z,33.73
2018-03-01T13:16:50.605Z,34.10
2018-03-01T13:19:18.505Z,35.00
2018-03-01T13:21:47.185Z,34.10
2018-03-01T13:24:15.345Z,34.97
2018-03-01T13:26:43.225Z,36.57
2018-03-01T13:29:11.325Z,38.50
2018-03-01T13:31:39.171Z,39.00
2018-03-01T13:34:07.745Z,40.53
2018-03-01T13:36:35.565Z,40.40
2018-03-01T13:39:03.605Z,38.87
2018-03-01T13:41:32.032Z,39.90
2018-03-01T13:43:59.965Z,38.83
2018-03-01T13:46:37.698Z,39.23
2018-03-01T13:49:05.506Z,37.87
2018-03-01T13:51:33.688Z,38.60
2018-03-01T13:54:01.868Z,37.53
2018-03-01T13:56:29.828Z,36.67
2018-03-01T13:58:57.848Z,37.53
2018-03-01T14:01:25.909Z,36.63
2018-03-01T14:03:53.750Z,37.27
2018-03-01T14:06:33.890Z,36.63
2018-03-01T14:09:03.110Z,35.23
2018-03-01T14:11:31.012Z,36.43
2018-03-01T14:14:00.170Z,35.97
2018-03-01T14:16:28.013Z,34.87
2018-03-01T14:19:01.730Z,35.77
2018-03-01T14:21:35.569Z,34.33
2018-03-01T14:24:09.731Z,38.73
2018-03-01T14:26:48.332Z,37.77
2018-03-01T14:29:16.448Z,37.37
2018-03-01T14:31:44.388Z,38.17
2018-03-01T14:34:12.629Z,37.43
2018-03-01T14:36:40.508Z,34.73
2018-03-01T14:39:08.348Z,37.50
2018-03-01T14:41:36.688Z,35.83
2018-03-01T14:44:04.548Z,37.50
2018-03-01T14:46:33.508Z,36.67
2018-03-01T14:49:03.392Z,37.00
2018-03-01T14:51:31.369Z,35.60
2018-03-01T14:53:59.128Z,36.77
2018-03-01T14:56:27.087Z,36.83
2018-03-01T14:58:54.968Z,35.47
2018-03-01T15:01:23.152Z,35.47
2018-03-01T15:03:51.319Z,34.93
2018-03-01T15:06:19.488Z,37.33
2018-03-01T15:08:47.649Z,36.40
2018-03-01T15:11:15.469Z,37.53
2018-03-01T15:13:43.330Z,36.70
2018-03-01T15:16:11.269Z,36.07
2018-03-01T15:18:39.249Z,36.73
2018-03-01T15:21:07.128Z,37.13
2018-03-01T15:23:35.369Z,36.07
2018-03-01T15:26:03.173Z,36.87
2018-03-01T15:28:31.229Z,37.70
2018-03-01T15:30:59.129Z,37.80
2018-03-01T15:33:27.208Z,39.40
2018-03-01T15:35:55.370Z,37.20
2018-03-01T15:38:23.248Z,38.50
2018-03-01T15:40:51.171Z,36.70
2018-03-01T15:43:21.710Z,36.00
2018-03-01T15:45:49.609Z,37.17
2018-03-01T15:48:17.489Z,38.30
2018-03-01T15:50:45.689Z,37.27
2018-03-01T15:55:45.669Z,36.97
2018-03-01T15:58:13.874Z,37.57
2018-03-01T16:00:42.021Z,37.83
2018-03-01T16:03:11.006Z,38.67
2018-03-01T16:05:38.891Z,39.23
2018-03-01T16:08:06.846Z,39.27
2018-03-01T16:10:35.071Z,38.93
2018-03-01T16:13:03.352Z,41.30
2018-03-01T16:15:31.221Z,42.10
2018-03-01T16:17:59.127Z,40.43
2018-03-01T16:20:27.314Z,39.63
2018-03-01T16:22:55.354Z,39.87
2018-03-01T16:25:23.209Z,39.27
2018-03-01T16:27:51.311Z,38.43
2018-03-01T16:30:19.109Z,38.77
2018-03-01T16:32:47.031Z,41.37
2018-03-01T16:35:14.871Z,41.37
2018-03-01T16:37:42.791Z,38.30
2018-03-01T16:40:10.591Z,38.63
2018-03-01T16:42:38.687Z,42.10
2018-03-01T16:45:06.506Z,40.53
2018-03-01T16:47:34.388Z,40.10
2018-03-01T16:50:02.247Z,40.23
2018-03-01T16:52:30.077Z,39.77
2018-03-01T16:54:57.909Z,55.10
2018-03-01T16:57:25.790Z,47.97
2018-03-01T16:59:54.508Z,45.13
2018-03-01T17:02:22.412Z,41.73
2018-03-01T17:04:50.256Z,45.00
2018-03-01T17:07:19.831Z,49.27
2018-03-01T17:09:47.691Z,50.80
2018-03-01T17:12:15.651Z,47.53
2018-03-01T17:14:43.593Z,50.33
2018-03-01T17:17:11.413Z,49.13
2018-03-01T17:19:39.351Z,47.67
2018-03-01T17:22:07.208Z,47.37
2018-03-01T17:24:35.128Z,45.63
2018-03-01T17:27:03.031Z,49.90
2018-03-01T17:29:33.624Z,49.03
2018-03-01T17:32:01.530Z,50.03
2018-03-01T17:34:29.369Z,50.90
2018-03-01T17:36:57.169Z,48.60
2018-03-01T17:39:25.107Z,49.37
2018-03-01T17:41:53.509Z,47.03
2018-03-01T17:44:21.469Z,47.13
2018-03-01T17:46:49.248Z,49.67
2018-03-01T17:49:17.408Z,51.17
2018-03-01T17:51:45.269Z,49.47
2018-03-01T17:54:13.888Z,49.63
2018-03-01T17:56:41.789Z,48.23
2018-03-01T17:59:09.769Z,50.87
2018-03-01T18:01:38.037Z,47.80
2018-03-01T18:04:06.188Z,48.17
2018-03-01T18:06:34.313Z,51.23
2018-03-01T18:09:02.268Z,48.40
2018-03-01T18:11:30.148Z,49.00
2018-03-01T18:13:58.108Z,49.53
2018-03-01T18:16:25.968Z,49.43
2018-03-01T18:18:53.868Z,50.93
2018-03-01T18:21:21.669Z,47.17
2018-03-01T18:23:49.828Z,47.90
2018-03-01T18:26:17.807Z,49.00
2018-03-01T18:28:45.648Z,49.80
2018-03-01T18:31:13.530Z,49.80
2018-03-01T18:33:41.332Z,49.80
2018-03-01T18:36:09.270Z,49.67
2018-03-01T18:38:38.271Z,51.90
2018-03-01T18:41:06.128Z,51.17
2018-03-01T18:43:33.968Z,51.53
2018-03-01T18:46:02.328Z,50.30
2018-03-01T18:48:30.177Z,52.80
2018-03-01T18:50:58.888Z,51.53
2018-03-01T18:53:26.735Z,47.13
2018-03-01T18:55:56.234Z,51.90
2018-03-01T18:58:23.993Z,52.30
2018-03-01T19:00:52.288Z,52.97
2018-03-01T19:03:20.148Z,53.20
2018-03-01T19:05:48.232Z,50.07
2018-03-01T19:08:16.572Z,54.17
2018-03-01T19:10:44.464Z,50.97
2018-03-01T19:13:12.477Z,52.00
2018-03-01T19:15:40.669Z,51.93
2018-03-01T19:18:08.731Z,52.77
2018-03-01T19:20:36.673Z,53.23
2018-03-01T19:23:04.783Z,52.87
2018-03-01T19:25:33.592Z,56.67
2018-03-01T19:28:01.488Z,50.10
2018-03-01T19:30:29.408Z,55.30
2018-03-01T19:32:57.650Z,54.67
2018-03-01T19:35:25.741Z,49.57
2018-03-01T19:37:53.685Z,53.07
2018-03-01T19:40:21.511Z,52.27
2018-03-01T19:42:49.448Z,52.83
2018-03-01T19:45:17.249Z,51.40
2018-03-01T19:47:45.351Z,53.77
2018-03-01T19:50:13.195Z,49.30
2018-03-01T19:52:41.449Z,52.23
2018-03-01T19:55:09.389Z,54.07
2018-03-01T19:57:38.608Z,52.13
2018-03-01T20:00:06.728Z,53.47
2018-03-01T20:02:34.529Z,52.07
2018-03-01T20:05:02.275Z,51.60
2018-03-01T20:07:30.469Z,54.77
2018-03-01T20:09:58.768Z,51.93
2018-03-01T20:12:26.827Z,54.67
2018-03-01T20:14:54.728Z,54.93
2018-03-01T20:17:23.267Z,55.83
2018-03-01T20:19:51.168Z,55.20
2018-03-01T20:22:20.074Z,52.07
2018-03-01T20:24:48.274Z,53.90
2018-03-01T20:27:16.535Z,53.17
2018-03-01T20:29:44.674Z,53.53
2018-03-01T20:32:12.773Z,52.00
2018-03-01T20:34:40.815Z,54.57
2018-03-01T20:37:09.035Z,55.33
2018-03-01T20:39:37.274Z,55.97
2018-03-01T20:42:05.114Z,52.33
2018-03-01T20:44:32.893Z,54.57
2018-03-01T20:47:00.893Z,54.73
2018-03-01T20:49:28.915Z,52.47
2018-03-01T20:51:56.774Z,54.60
2018-03-01T20:54:24.974Z,54.37
2018-03-01T20:56:53.593Z,53.53
2018-03-01T20:59:21.553Z,53.40
2018-03-01T21:01:50.286Z,55.07
2018-03-01T21:04:18.426Z,55.97
2018-03-01T21:06:46.228Z,55.13
2018-03-01T21:09:14.247Z,52.93
2018-03-01T21:11:42.186Z,53.60
2018-03-01T21:14:10.367Z,53.10
2018-03-01T21:16:38.287Z,52.70
2018-03-01T21:19:06.347Z,52.87
2018-03-01T21:21:34.148Z,52.40
2018-03-01T21:24:02.012Z,54.80
2018-03-01T21:26:30.686Z,51.47
2018-03-01T21:28:58.851Z,52.53
2018-03-01T21:31:26.886Z,52.40
2018-03-01T21:33:54.886Z,53.73
2018-03-01T21:36:22.774Z,50.70
2018-03-01T21:38:50.748Z,53.33
2018-03-01T21:41:18.567Z,52.03
2018-03-01T21:43:46.887Z,53.77
2018-03-01T21:46:14.867Z,54.50
2018-03-01T21:48:42.686Z,54.77
2018-03-01T21:51:10.546Z,52.67
2018-03-01T21:53:38.805Z,52.27
2018-03-01T21:56:06.674Z,49.37
2018-03-01T21:58:34.545Z,52.90
2018-03-01T22:01:02.434Z,54.67
2018-03-01T22:03:30.513Z,51.50
2018-03-01T22:05:58.672Z,52.00
2018-03-01T22:08:26.854Z,54.20
2018-03-01T22:10:55.934Z,47.87
2018-03-01T22:13:23.832Z,49.63
2018-03-01T22:15:51.853Z,56.17
2018-03-01T22:18:20.093Z,51.97
2018-03-01T22:20:48.233Z,54.47
2018-03-01T22:23:17.651Z,58.13
2018-03-01T22:25:45.668Z,55.03
2018-03-01T22:28:13.608Z,57.83
2018-03-01T22:30:41.406Z,55.17
2018-03-01T22:33:10.030Z,58.33
2018-03-01T22:35:37.931Z,55.13
2018-03-01T22:38:05.808Z,55.60
2018-03-01T22:40:33.768Z,55.27
2018-03-01T22:43:01.848Z,55.10
2018-03-01T22:45:29.921Z,58.70
2018-03-01T22:47:57.730Z,56.00
2018-03-01T22:50:26.388Z,58.07
2018-03-01T22:52:54.549Z,57.20
2018-03-01T22:55:22.408Z,58.70
2018-03-01T22:57:50.327Z,56.87
2018-03-01T23:03:17.510Z,57.37
2018-03-01T23:05:46.812Z,55.33
2018-03-01T23:08:14.749Z,56.63
2018-03-01T23:10:42.789Z,58.50
2018-03-01T23:13:10.808Z,59.77
2018-03-01T23:15:39.031Z,55.57
2018-03-01T23:18:09.053Z,55.43
2018-03-01T23:20:37.828Z,56.40
2018-03-01T23:23:05.836Z,53.40
2018-03-01T23:25:33.808Z,57.23
2018-03-01T23:28:01.768Z,59.13
2018-03-01T23:30:29.827Z,58.00
2018-03-01T23:32:57.828Z,54.83
2018-03-01T23:35:25.709Z,56.50
2018-03-01T23:37:53.887Z,54.73
2018-03-01T23:40:21.830Z,55.83
2018-03-01T23:42:49.888Z,58.17
2018-03-01T23:45:17.796Z,58.93
2018-03-01T23:47:45.768Z,57.50
2018-03-01T23:52:47.911Z,57.20
2018-03-01T23:55:15.889Z,54.60
2018-03-01T23:57:43.894Z,57.57
